createdAt,value
2022-07-25T00:01:57.331Z,100152.31
2022-07-25T00:08:46.000Z,100137.09
2022-07-25T00:15:31.743Z,100130.63
2022-07-25T00:22:17.301Z,100131.06
2022-07-25T00:29:05.492Z,100101.41
2022-07-25T00:35:51.174Z,100121.78
2022-07-25T00:42:37.039Z,100115.06
2022-07-25T00:49:25.922Z,100092.16
2022-07-25T00:56:12.205Z,100083.91
2022-07-25T01:02:57.919Z,100107.81
2022-07-25T01:09:46.253Z,100056.88
2022-07-25T01:16:31.835Z,100072.16
2022-07-25T01:23:20.433Z,100002.25
2022-07-25T01:30:06.713Z,99999.28
2022-07-25T01:36:52.236Z,100059.13
2022-07-25T01:43:40.373Z,100004.06
2022-07-25T01:50:26.427Z,100043.88
2022-07-25T01:57:13.346Z,100041.91
2022-07-25T02:04:01.583Z,100032.72
2022-07-25T02:10:47.454Z,100034.47
2022-07-25T02:17:33.182Z,99972.78
2022-07-25T02:24:21.314Z,100021.47
2022-07-25T02:31:07.646Z,100011.94
2022-07-25T02:37:53.261Z,100004.09
2022-07-25T02:44:41.404Z,100003.06
2022-07-25T03:05:19.170Z,99967.72
2022-07-25T03:12:05.130Z,100009.19
2022-07-25T03:18:50.712Z,100011.28
2022-07-25T03:25:38.929Z,99998.66
2022-07-25T03:32:24.470Z,100002.69
2022-07-25T03:39:09.982Z,100006.81
2022-07-25T03:45:58.178Z,99992.84
2022-07-25T03:52:44.112Z,99958.94
2022-07-25T03:59:29.739Z,100009.47
2022-07-25T04:06:17.831Z,99989.47
2022-07-25T04:13:03.374Z,99984.03
2022-07-25T04:19:48.945Z,99994.34
2022-07-25T04:26:37.121Z,99980.72
2022-07-25T04:33:23.297Z,99974.31
2022-07-25T04:40:11.627Z,99977.50
2022-07-25T04:46:59.780Z,99965.44
2022-07-25T04:53:45.341Z,99961.84
2022-07-25T05:00:31.676Z,99912.81
2022-07-25T05:07:19.962Z,99961.03
2022-07-25T05:14:05.963Z,99942.34
2022-07-25T05:20:51.851Z,99972.88
2022-07-25T05:27:40.602Z,99971.78
2022-07-25T05:34:26.293Z,99967.81
2022-07-25T05:41:12.379Z,99959.53
2022-07-25T05:48:00.800Z,99962.88
2022-07-25T05:54:47.185Z,99952.34
2022-07-25T06:01:32.775Z,99931.25
2022-07-25T06:08:20.828Z,99909.88
2022-07-25T06:15:19.722Z,99930.47
2022-07-25T06:22:09.427Z,99937.66
2022-07-25T06:28:57.500Z,99923.38
2022-07-25T06:35:43.251Z,99828.16
2022-07-25T06:42:31.398Z,99922.59
2022-07-25T06:49:19.526Z,99918.16
2022-07-25T06:56:05.026Z,99919.38
2022-07-25T07:02:59.766Z,99904.41
2022-07-25T07:09:48.389Z,99897.56
2022-07-25T07:16:34.406Z,99905.47
2022-07-25T07:23:20.378Z,99899.28
2022-07-25T07:30:10.752Z,99909.19
2022-07-25T07:36:56.706Z,99909.78
2022-07-25T07:43:42.279Z,99870.91
2022-07-25T07:50:31.624Z,99904.16
2022-07-25T07:57:17.317Z,99852.25
2022-07-25T08:04:02.803Z,99903.47
2022-07-25T08:10:58.392Z,99898.44
2022-07-25T08:17:44.334Z,99896.63
2022-07-25T08:24:30.161Z,99898.78
2022-07-25T08:31:18.446Z,99897.28
2022-07-25T08:38:05.377Z,99854.66
2022-07-25T08:45:01.139Z,99874.13
2022-07-25T08:51:51.774Z,99875.75
2022-07-25T08:58:37.577Z,99874.28
2022-07-25T09:05:24.489Z,99863.34
2022-07-25T09:12:12.909Z,99859.84
2022-07-25T09:19:10.712Z,99852.22
2022-07-25T09:25:58.334Z,99846.56
2022-07-25T09:32:46.866Z,99823.50
2022-07-25T09:39:46.938Z,99827.81
2022-07-25T09:46:34.708Z,99825.69
2022-07-25T09:53:23.722Z,99810.88
2022-07-25T10:00:17.477Z,99806.69
2022-07-25T10:07:10.257Z,99801.34
2022-07-25T10:13:59.363Z,99808.50
2022-07-25T10:20:46.541Z,99750.50
2022-07-25T10:27:32.044Z,99792.66
2022-07-25T10:34:30.483Z,99775.69
2022-07-25T10:41:16.389Z,99773.41
2022-07-25T10:48:10.541Z,99776.84
2022-07-25T10:55:01.651Z,99754.00
2022-07-25T11:01:48.540Z,99756.31
2022-07-25T11:08:35.889Z,99745.75
2022-07-25T11:15:26.475Z,99679.50
2022-07-25T11:22:12.557Z,99702.75
2022-07-25T11:28:58.034Z,99708.75
2022-07-25T11:35:46.760Z,99731.56
2022-07-25T11:42:44.017Z,99742.28
2022-07-25T11:49:29.450Z,99750.19
2022-07-25T11:56:41.786Z,99736.72
2022-07-25T12:03:27.846Z,99749.75
2022-07-25T12:10:18.406Z,99750.91
2022-07-25T12:17:06.605Z,99743.13
2022-07-25T12:23:52.222Z,99745.72
2022-07-25T12:30:38.999Z,99742.16
2022-07-25T12:37:27.770Z,99728.84
2022-07-25T12:44:13.496Z,99717.59
2022-07-25T12:50:59.001Z,99723.44
2022-07-25T12:57:47.509Z,99656.94
2022-07-25T13:04:33.273Z,99728.50
2022-07-25T13:11:18.724Z,99723.59
2022-07-25T13:18:07.740Z,99707.84
2022-07-25T13:24:53.240Z,99705.47
2022-07-25T13:31:39.510Z,99716.09
2022-07-25T13:38:27.907Z,99698.97
2022-07-25T13:45:14.434Z,99711.47
2022-07-25T13:51:59.905Z,99703.97
2022-07-25T13:58:49.002Z,99675.69
2022-07-25T14:05:34.666Z,99682.19
2022-07-25T14:12:21.170Z,99668.56
2022-07-25T14:19:09.678Z,99667.44
2022-07-25T14:25:55.497Z,99659.97
2022-07-25T14:32:41.874Z,99605.50
2022-07-25T14:39:30.086Z,99655.47
2022-07-25T14:46:15.727Z,99662.94
2022-07-25T14:53:02.043Z,99651.88
2022-07-25T14:59:50.238Z,99640.47
2022-07-25T15:06:35.757Z,99637.25
2022-07-25T15:13:31.078Z,99629.38
2022-07-25T15:20:20.131Z,99630.09
2022-07-25T15:27:05.990Z,99646.56
2022-07-25T15:33:51.611Z,99635.47
2022-07-25T15:40:39.719Z,99622.66
2022-07-25T15:47:25.414Z,99641.25
2022-07-25T15:54:10.949Z,99633.50
2022-07-25T16:00:59.219Z,99589.38
2022-07-25T16:07:45.392Z,99647.75
2022-07-25T16:14:31.093Z,99657.00
2022-07-25T16:21:19.188Z,99642.81
2022-07-25T16:28:06.292Z,99660.84
2022-07-25T16:34:52.339Z,99675.28
2022-07-25T16:41:40.427Z,99692.97
2022-07-25T16:48:25.989Z,99699.25
2022-07-25T16:55:12.853Z,99724.56
2022-07-25T17:02:01.012Z,99743.00
2022-07-25T17:08:46.773Z,99666.72
2022-07-25T17:15:32.566Z,99745.50
2022-07-25T17:22:20.911Z,99737.59
2022-07-25T17:29:09.249Z,99751.97
2022-07-25T17:35:54.957Z,99755.34
2022-07-25T17:42:45.547Z,99768.94
2022-07-25T17:49:31.467Z,99796.97
2022-07-25T17:56:17.162Z,99804.31
2022-07-25T18:03:05.411Z,99805.63
2022-07-25T18:09:51.067Z,99830.94
2022-07-25T18:16:36.822Z,99806.03
2022-07-25T18:23:27.072Z,99846.56
2022-07-25T18:30:14.781Z,99858.47
2022-07-25T18:37:00.951Z,99883.34
2022-07-25T18:43:49.032Z,99885.91
2022-07-25T18:50:34.581Z,99914.63
2022-07-25T18:57:20.613Z,99783.56
2022-07-25T19:04:09.103Z,99924.50
2022-07-25T19:10:55.014Z,99949.22
2022-07-25T19:17:40.913Z,99964.97
2022-07-25T19:24:29.974Z,99971.41
2022-07-25T19:31:15.556Z,99999.44
2022-07-25T19:38:01.858Z,100015.78
2022-07-25T19:44:50.240Z,99910.81
2022-07-25T19:51:36.673Z,100009.25
2022-07-25T19:58:23.040Z,100001.28
2022-07-25T20:05:12.353Z,100012.63
2022-07-25T20:11:57.788Z,100021.31
2022-07-25T20:18:43.299Z,99838.00
2022-07-25T20:25:31.418Z,100037.53
2022-07-25T20:32:17.045Z,100054.31
2022-07-25T20:39:02.734Z,100056.34
2022-07-25T20:45:51.142Z,100077.31
2022-07-25T20:52:36.669Z,100103.28
2022-07-25T20:59:22.661Z,100086.00
2022-07-25T21:06:11.177Z,100101.31
2022-07-25T21:12:57.048Z,100070.00
2022-07-25T21:19:42.897Z,100125.38
2022-07-25T21:26:31.388Z,100120.59
2022-07-25T21:33:17.108Z,100125.66
2022-07-25T21:40:04.658Z,100129.47
2022-07-25T21:46:52.766Z,100131.63
2022-07-25T21:53:38.344Z,100144.25
2022-07-25T22:00:24.915Z,100084.53
2022-07-25T22:07:13.121Z,100146.63
2022-07-25T22:13:58.717Z,100148.78
2022-07-25T22:20:46.062Z,100151.75
2022-07-25T22:27:34.579Z,100143.72
2022-07-25T22:34:20.124Z,100133.22
2022-07-25T22:41:06.628Z,100123.00
2022-07-25T22:47:54.849Z,100105.66
2022-07-25T22:54:40.521Z,100139.78
2022-07-25T23:01:26.918Z,100127.94
2022-07-25T23:08:15.199Z,100174.25
2022-07-25T23:15:03.707Z,100188.78
2022-07-25T23:21:49.641Z,100198.66
2022-07-25T23:28:37.729Z,100207.56
2022-07-25T23:35:23.510Z,100216.38
2022-07-25T23:42:09.344Z,100224.16
2022-07-25T23:48:57.522Z,100124.25
2022-07-25T23:55:43.067Z,100226.97
